<?xml version="1.0" encoding="UTF-8" standalone="no" ?>
<gpx xmlns="http://www.topografix.com/GPX/1/1" xmlns:xsi="http://www.w3.org/2001/XMLSchema-instance" xsi:schemaLocation="http://www.topografix.com/GPX/1/1 http://www.topografix.com/GPX/1/1/gpx.xsd" version="1.1" creator="VisuGPX - https://www.visugpx.com">
  <metadata>
    <name>Edirne-Sarajevo</name>
  </metadata>
  <trk>
    <name><![CDATA[Tour d'Europe: étape 645]]></name>
    <extensions>
      <line xmlns="http://www.topografix.com/GPX/gpx_style/0/2">
        <color>0000FF</color>
        <width>4</width>
      </line>
    </extensions>
    <trkseg>
      <trkpt lat="42.67799" lon="23.28777">
        <ele>646.701211</ele>
        <time>2022-04-04T07:30:43.045Z</time>
      </trkpt>
      <trkpt lat="42.67761" lon="23.28655">
        <ele>645.777208</ele>
        <time>2022-04-04T07:31:50.865Z</time>
      </trkpt>
      <trkpt lat="42.67905" lon="23.28447">
        <ele>643.565691</ele>
        <time>2022-04-04T07:34:30.857Z</time>
      </trkpt>
      <trkpt lat="42.68025" lon="23.28218">
        <ele>650.081842</ele>
        <time>2022-04-04T07:35:31.856Z</time>
      </trkpt>
      <trkpt lat="42.68172" lon="23.28015">
        <ele>640.759528</ele>
        <time>2022-04-04T07:36:13.859Z</time>
      </trkpt>
      <trkpt lat="42.68323" lon="23.27808">
        <ele>628.99586</ele>
        <time>2022-04-04T07:36:39.875Z</time>
      </trkpt>
      <trkpt lat="42.6847" lon="23.27582">
        <ele>623.44888</ele>
        <time>2022-04-04T07:37:31.901Z</time>
      </trkpt>
      <trkpt lat="42.6862" lon="23.27491">
        <ele>620.249477</ele>
        <time>2022-04-04T07:38:22.859Z</time>
      </trkpt>
      <trkpt lat="42.68821" lon="23.27635">
        <ele>614.086816</ele>
        <time>2022-04-04T07:39:02.867Z</time>
      </trkpt>
      <trkpt lat="42.69032" lon="23.27793">
        <ele>608.972395</ele>
        <time>2022-04-04T07:39:42.905Z</time>
      </trkpt>
      <trkpt lat="42.69219" lon="23.28031">
        <ele>611.746201</ele>
        <time>2022-04-04T07:40:22.861Z</time>
      </trkpt>
      <trkpt lat="42.69363" lon="23.28252">
        <ele>610.994594</ele>
        <time>2022-04-04T07:41:03.864Z</time>
      </trkpt>
      <trkpt lat="42.69523" lon="23.28484">
        <ele>607.948138</ele>
        <time>2022-04-04T07:41:43.861Z</time>
      </trkpt>
      <trkpt lat="42.69544" lon="23.28718">
        <ele>613.892426</ele>
        <time>2022-04-04T08:07:03.872Z</time>
      </trkpt>
      <trkpt lat="42.69521" lon="23.28457">
        <ele>622.907138</ele>
        <time>2022-04-04T08:08:04.888Z</time>
      </trkpt>
      <trkpt lat="42.69359" lon="23.28256">
        <ele>645.503967</ele>
        <time>2022-04-04T08:09:00.881Z</time>
      </trkpt>
      <trkpt lat="42.6921" lon="23.28017">
        <ele>622.592591</ele>
        <time>2022-04-04T08:10:35.878Z</time>
      </trkpt>
      <trkpt lat="42.69065" lon="23.27814">
        <ele>620.028699</ele>
        <time>2022-04-04T08:11:24.872Z</time>
      </trkpt>
      <trkpt lat="42.68864" lon="23.2765">
        <ele>615.233074</ele>
        <time>2022-04-04T08:12:24.869Z</time>
      </trkpt>
      <trkpt lat="42.68665" lon="23.27504">
        <ele>612.960679</ele>
        <time>2022-04-04T08:13:19.876Z</time>
      </trkpt>
      <trkpt lat="42.68482" lon="23.27352">
        <ele>618.7971</ele>
        <time>2022-04-04T08:14:28.865Z</time>
      </trkpt>
      <trkpt lat="42.68304" lon="23.27182">
        <ele>628.285488</ele>
        <time>2022-04-04T08:15:28.876Z</time>
      </trkpt>
      <trkpt lat="42.68154" lon="23.26979">
        <ele>628.570486</ele>
        <time>2022-04-04T08:17:16.866Z</time>
      </trkpt>
      <trkpt lat="42.68037" lon="23.26804">
        <ele>631.087223</ele>
        <time>2022-04-04T08:18:53.882Z</time>
      </trkpt>
      <trkpt lat="42.68017" lon="23.26554">
        <ele>638.156563</ele>
        <time>2022-04-04T08:20:05.875Z</time>
      </trkpt>
      <trkpt lat="42.67921" lon="23.26298">
        <ele>641.987171</ele>
        <time>2022-04-04T08:21:18.867Z</time>
      </trkpt>
      <trkpt lat="42.67836" lon="23.26056">
        <ele>644.888647</ele>
        <time>2022-04-04T08:22:44.867Z</time>
      </trkpt>
      <trkpt lat="42.67736" lon="23.25808">
        <ele>654.535958</ele>
        <time>2022-04-04T08:24:12.875Z</time>
      </trkpt>
      <trkpt lat="42.67715" lon="23.25539">
        <ele>666.145306</ele>
        <time>2022-04-04T08:25:40.867Z</time>
      </trkpt>
      <trkpt lat="42.67659" lon="23.2533">
        <ele>672.494994</ele>
        <time>2022-04-04T08:27:13.883Z</time>
      </trkpt>
      <trkpt lat="42.67453" lon="23.25249">
        <ele>665.850127</ele>
        <time>2022-04-04T08:28:25.895Z</time>
      </trkpt>
      <trkpt lat="42.67251" lon="23.25173">
        <ele>663.22732</ele>
        <time>2022-04-04T08:29:07.881Z</time>
      </trkpt>
      <trkpt lat="42.67076" lon="23.25301">
        <ele>662.448432</ele>
        <time>2022-04-04T08:29:56.944Z</time>
      </trkpt>
      <trkpt lat="42.66918" lon="23.25195">
        <ele>663.762024</ele>
        <time>2022-04-04T08:30:58.883Z</time>
      </trkpt>
      <trkpt lat="42.66755" lon="23.25003">
        <ele>668.886684</ele>
        <time>2022-04-04T08:32:11.886Z</time>
      </trkpt>
      <trkpt lat="42.66584" lon="23.24838">
        <ele>668.306634</ele>
        <time>2022-04-04T08:33:23.884Z</time>
      </trkpt>
      <trkpt lat="42.6641" lon="23.24688">
        <ele>676.648507</ele>
        <time>2022-04-04T08:34:37.879Z</time>
      </trkpt>
      <trkpt lat="42.66346" lon="23.24484">
        <ele>673.706684</ele>
        <time>2022-04-04T08:35:51.867Z</time>
      </trkpt>
      <trkpt lat="42.66211" lon="23.24291">
        <ele>683.478135</ele>
        <time>2022-04-04T08:37:17.882Z</time>
      </trkpt>
      <trkpt lat="42.66048" lon="23.24182">
        <ele>686.900213</ele>
        <time>2022-04-04T08:38:41.880Z</time>
      </trkpt>
      <trkpt lat="42.65916" lon="23.24052">
        <ele>692.737545</ele>
        <time>2022-04-04T08:40:05.867Z</time>
      </trkpt>
      <trkpt lat="42.65818" lon="23.23841">
        <ele>699.805014</ele>
        <time>2022-04-04T08:41:35.894Z</time>
      </trkpt>
      <trkpt lat="42.65723" lon="23.23601">
        <ele>704.716925</ele>
        <time>2022-04-04T08:43:07.912Z</time>
      </trkpt>
      <trkpt lat="42.65626" lon="23.23364">
        <ele>709.411436</ele>
        <time>2022-04-04T08:44:30.885Z</time>
      </trkpt>
      <trkpt lat="42.6554" lon="23.23124">
        <ele>716.864554</ele>
        <time>2022-04-04T08:45:49.890Z</time>
      </trkpt>
      <trkpt lat="42.65461" lon="23.2287">
        <ele>726.051792</ele>
        <time>2022-04-04T08:47:13.887Z</time>
      </trkpt>
      <trkpt lat="42.65408" lon="23.2261">
        <ele>726.991018</ele>
        <time>2022-04-04T08:48:36.884Z</time>
      </trkpt>
      <trkpt lat="42.65287" lon="23.22392">
        <ele>729.80164</ele>
        <time>2022-04-04T08:50:07.867Z</time>
      </trkpt>
      <trkpt lat="42.65193" lon="23.22155">
        <ele>737.01658</ele>
        <time>2022-04-04T08:51:33.885Z</time>
      </trkpt>
      <trkpt lat="42.6511" lon="23.21904">
        <ele>746.521028</ele>
        <time>2022-04-04T08:53:00.907Z</time>
      </trkpt>
      <trkpt lat="42.6504" lon="23.21664">
        <ele>757.970462</ele>
        <time>2022-04-04T08:55:50.926Z</time>
      </trkpt>
      <trkpt lat="42.64959" lon="23.21426">
        <ele>770.874113</ele>
        <time>2022-04-04T08:57:42.869Z</time>
      </trkpt>
      <trkpt lat="42.6489" lon="23.2118">
        <ele>780.81586</ele>
        <time>2022-04-04T08:59:28.876Z</time>
      </trkpt>
      <trkpt lat="42.64769" lon="23.20949">
        <ele>772.466505</ele>
        <time>2022-04-04T09:00:31.890Z</time>
      </trkpt>
      <trkpt lat="42.64653" lon="23.20732">
        <ele>781.797619</ele>
        <time>2022-04-04T09:01:57.874Z</time>
      </trkpt>
      <trkpt lat="42.64501" lon="23.20555">
        <ele>791.609842</ele>
        <time>2022-04-04T09:03:30.896Z</time>
      </trkpt>
      <trkpt lat="42.64332" lon="23.20436">
        <ele>806.493698</ele>
        <time>2022-04-04T09:05:28.885Z</time>
      </trkpt>
      <trkpt lat="42.64177" lon="23.20304">
        <ele>821.281682</ele>
        <time>2022-04-04T09:07:28.891Z</time>
      </trkpt>
      <trkpt lat="42.64031" lon="23.20123">
        <ele>825.887904</ele>
        <time>2022-04-04T09:09:27.885Z</time>
      </trkpt>
      <trkpt lat="42.6392" lon="23.19922">
        <ele>828.281504</ele>
        <time>2022-04-04T09:11:24.918Z</time>
      </trkpt>
      <trkpt lat="42.63792" lon="23.19721">
        <ele>843.870416</ele>
        <time>2022-04-04T09:13:06.918Z</time>
      </trkpt>
      <trkpt lat="42.6361" lon="23.19608">
        <ele>847.947704</ele>
        <time>2022-04-04T09:14:38.862Z</time>
      </trkpt>
      <trkpt lat="42.63414" lon="23.1951">
        <ele>842.633639</ele>
        <time>2022-04-04T09:15:48.889Z</time>
      </trkpt>
      <trkpt lat="42.63244" lon="23.19391">
        <ele>849.665071</ele>
        <time>2022-04-04T09:17:14.891Z</time>
      </trkpt>
      <trkpt lat="42.63049" lon="23.19408">
        <ele>857.020282</ele>
        <time>2022-04-04T09:19:03.888Z</time>
      </trkpt>
      <trkpt lat="42.6294" lon="23.19599">
        <ele>866.972133</ele>
        <time>2022-04-04T09:20:39.883Z</time>
      </trkpt>
      <trkpt lat="42.62775" lon="23.19423">
        <ele>867.814328</ele>
        <time>2022-04-04T09:21:30.883Z</time>
      </trkpt>
      <trkpt lat="42.6259" lon="23.19283">
        <ele>862.726477</ele>
        <time>2022-04-04T09:22:27.910Z</time>
      </trkpt>
      <trkpt lat="42.6241" lon="23.19195">
        <ele>864.179262</ele>
        <time>2022-04-04T09:24:03.879Z</time>
      </trkpt>
      <trkpt lat="42.62313" lon="23.19134">
        <ele>878.071479</ele>
        <time>2022-04-04T09:47:16.936Z</time>
      </trkpt>
      <trkpt lat="42.62193" lon="23.18958">
        <ele>885.147933</ele>
        <time>2022-04-04T09:49:00.871Z</time>
      </trkpt>
      <trkpt lat="42.62006" lon="23.18886">
        <ele>894.866107</ele>
        <time>2022-04-04T09:50:57.863Z</time>
      </trkpt>
      <trkpt lat="42.62058" lon="23.18658">
        <ele>902.007741</ele>
        <time>2022-04-04T09:52:36.865Z</time>
      </trkpt>
      <trkpt lat="42.62268" lon="23.18627">
        <ele>903.97605</ele>
        <time>2022-04-04T09:53:54.862Z</time>
      </trkpt>
      <trkpt lat="42.62292" lon="23.18395">
        <ele>906.850492</ele>
        <time>2022-04-04T09:55:33.870Z</time>
      </trkpt>
      <trkpt lat="42.6223" lon="23.1814">
        <ele>905.69863</ele>
        <time>2022-04-04T09:56:59.866Z</time>
      </trkpt>
      <trkpt lat="42.62051" lon="23.17942">
        <ele>898.014859</ele>
        <time>2022-04-04T09:57:48.867Z</time>
      </trkpt>
      <trkpt lat="42.61869" lon="23.17749">
        <ele>894.020272</ele>
        <time>2022-04-04T10:00:11.944Z</time>
      </trkpt>
      <trkpt lat="42.61703" lon="23.17513">
        <ele>885.207135</ele>
        <time>2022-04-04T10:00:51.904Z</time>
      </trkpt>
      <trkpt lat="42.61568" lon="23.17288">
        <ele>876.358488</ele>
        <time>2022-04-04T10:01:40.930Z</time>
      </trkpt>
      <trkpt lat="42.61632" lon="23.17054">
        <ele>866.821948</ele>
        <time>2022-04-04T10:02:26.923Z</time>
      </trkpt>
      <trkpt lat="42.61474" lon="23.16849">
        <ele>866.140348</ele>
        <time>2022-04-04T10:03:38.874Z</time>
      </trkpt>
      <trkpt lat="42.61449" lon="23.16753">
        <ele>844.761853</ele>
        <time>2022-04-04T10:05:09.881Z</time>
      </trkpt>
      <trkpt lat="42.61589" lon="23.16731">
        <ele>837.683649</ele>
        <time>2022-04-04T10:06:49.884Z</time>
      </trkpt>
      <trkpt lat="42.61493" lon="23.16451">
        <ele>824.987691</ele>
        <time>2022-04-04T10:07:44.885Z</time>
      </trkpt>
      <trkpt lat="42.61376" lon="23.1619">
        <ele>820.128969</ele>
        <time>2022-04-04T10:08:38.916Z</time>
      </trkpt>
      <trkpt lat="42.61282" lon="23.15948">
        <ele>820.058905</ele>
        <time>2022-04-04T10:10:02.899Z</time>
      </trkpt>
      <trkpt lat="42.61141" lon="23.15747">
        <ele>815.946334</ele>
        <time>2022-04-04T10:11:29.909Z</time>
      </trkpt>
      <trkpt lat="42.61028" lon="23.15518">
        <ele>812.761692</ele>
        <time>2022-04-04T10:12:53.891Z</time>
      </trkpt>
      <trkpt lat="42.60951" lon="23.15266">
        <ele>809.596349</ele>
        <time>2022-04-04T10:14:11.883Z</time>
      </trkpt>
      <trkpt lat="42.60897" lon="23.15014">
        <ele>813.679787</ele>
        <time>2022-04-04T10:15:42.887Z</time>
      </trkpt>
      <trkpt lat="42.6078" lon="23.14758">
        <ele>804.784672</ele>
        <time>2022-04-04T10:16:37.895Z</time>
      </trkpt>
      <trkpt lat="42.60642" lon="23.14517">
        <ele>796.743591</ele>
        <time>2022-04-04T10:17:27.884Z</time>
      </trkpt>
      <trkpt lat="42.60521" lon="23.1429">
        <ele>802.360401</ele>
        <time>2022-04-04T10:18:54.873Z</time>
      </trkpt>
      <trkpt lat="42.60471" lon="23.14008">
        <ele>803.85711</ele>
        <time>2022-04-04T10:19:45.876Z</time>
      </trkpt>
      <trkpt lat="42.60349" lon="23.1414">
        <ele>790.075236</ele>
        <time>2022-04-04T10:20:42.893Z</time>
      </trkpt>
      <trkpt lat="42.60238" lon="23.14373">
        <ele>786.71118</ele>
        <time>2022-04-04T10:21:42.892Z</time>
      </trkpt>
      <trkpt lat="42.60194" lon="23.1413">
        <ele>788.022319</ele>
        <time>2022-04-04T10:22:28.915Z</time>
      </trkpt>
      <trkpt lat="42.60176" lon="23.1384">
        <ele>786.730793</ele>
        <time>2022-04-04T10:23:08.898Z</time>
      </trkpt>
      <trkpt lat="42.60159" lon="23.13534">
        <ele>787.090658</ele>
        <time>2022-04-04T10:23:48.883Z</time>
      </trkpt>
      <trkpt lat="42.60142" lon="23.1324">
        <ele>786.327698</ele>
        <time>2022-04-04T10:24:37.906Z</time>
      </trkpt>
      <trkpt lat="42.60125" lon="23.12957">
        <ele>788.364975</ele>
        <time>2022-04-04T10:25:38.891Z</time>
      </trkpt>
      <trkpt lat="42.60066" lon="23.12672">
        <ele>782.775132</ele>
        <time>2022-04-04T10:26:25.885Z</time>
      </trkpt>
      <trkpt lat="42.60099" lon="23.12414">
        <ele>777.824166</ele>
        <time>2022-04-04T10:27:03.903Z</time>
      </trkpt>
      <trkpt lat="42.60083" lon="23.12101">
        <ele>774.04915</ele>
        <time>2022-04-04T10:27:43.885Z</time>
      </trkpt>
      <trkpt lat="42.60127" lon="23.11741">
        <ele>771.256606</ele>
        <time>2022-04-04T10:28:21.892Z</time>
      </trkpt>
      <trkpt lat="42.60272" lon="23.11506">
        <ele>764.442087</ele>
        <time>2022-04-04T10:29:07.899Z</time>
      </trkpt>
      <trkpt lat="42.60318" lon="23.11355">
        <ele>769.832361</ele>
        <time>2022-04-04T10:29:56.906Z</time>
      </trkpt>
      <trkpt lat="42.60361" lon="23.11074">
        <ele>782.981182</ele>
        <time>2022-04-04T10:30:41.902Z</time>
      </trkpt>
      <trkpt lat="42.60427" lon="23.10826">
        <ele>784.021813</ele>
        <time>2022-04-04T10:31:23.916Z</time>
      </trkpt>
      <trkpt lat="42.60544" lon="23.10597">
        <ele>785.889026</ele>
        <time>2022-04-04T10:32:06.910Z</time>
      </trkpt>
      <trkpt lat="42.60664" lon="23.10361">
        <ele>790.074828</ele>
        <time>2022-04-04T10:32:50.904Z</time>
      </trkpt>
      <trkpt lat="42.60705" lon="23.10087">
        <ele>790.525924</ele>
        <time>2022-04-04T10:33:35.928Z</time>
      </trkpt>
      <trkpt lat="42.60724" lon="23.09799">
        <ele>800.804925</ele>
        <time>2022-04-04T10:34:30.888Z</time>
      </trkpt>
      <trkpt lat="42.60737" lon="23.09522">
        <ele>787.500411</ele>
        <time>2022-04-04T10:35:14.891Z</time>
      </trkpt>
      <trkpt lat="42.60889" lon="23.09376">
        <ele>764.733586</ele>
        <time>2022-04-04T10:36:00.908Z</time>
      </trkpt>
      <trkpt lat="42.61024" lon="23.09205">
        <ele>761.086463</ele>
        <time>2022-04-04T10:36:50.895Z</time>
      </trkpt>
      <trkpt lat="42.61065" lon="23.08934">
        <ele>761.782436</ele>
        <time>2022-04-04T10:38:25.887Z</time>
      </trkpt>
      <trkpt lat="42.61074" lon="23.08633">
        <ele>763.349979</ele>
        <time>2022-04-04T10:39:35.901Z</time>
      </trkpt>
      <trkpt lat="42.61082" lon="23.08329">
        <ele>764.205659</ele>
        <time>2022-04-04T10:40:30.886Z</time>
      </trkpt>
      <trkpt lat="42.61088" lon="23.08039">
        <ele>761.861951</ele>
        <time>2022-04-04T10:41:16.933Z</time>
      </trkpt>
      <trkpt lat="42.61099" lon="23.07754">
        <ele>752.609633</ele>
        <time>2022-04-04T10:42:05.872Z</time>
      </trkpt>
      <trkpt lat="42.61081" lon="23.07469">
        <ele>750.698558</ele>
        <time>2022-04-04T10:43:02.878Z</time>
      </trkpt>
      <trkpt lat="42.6098" lon="23.07204">
        <ele>750.770938</ele>
        <time>2022-04-04T10:43:56.893Z</time>
      </trkpt>
      <trkpt lat="42.60883" lon="23.06972">
        <ele>747.147185</ele>
        <time>2022-04-04T10:44:38.932Z</time>
      </trkpt>
      <trkpt lat="42.60813" lon="23.06692">
        <ele>747.946807</ele>
        <time>2022-04-04T10:45:28.871Z</time>
      </trkpt>
      <trkpt lat="42.60821" lon="23.06397">
        <ele>751.673077</ele>
        <time>2022-04-04T10:46:24.883Z</time>
      </trkpt>
      <trkpt lat="42.60821" lon="23.06096">
        <ele>749.598756</ele>
        <time>2022-04-04T10:47:16.891Z</time>
      </trkpt>
      <trkpt lat="42.60794" lon="23.05798">
        <ele>750.553625</ele>
        <time>2022-04-04T10:48:08.873Z</time>
      </trkpt>
      <trkpt lat="42.6077" lon="23.05521">
        <ele>746.460676</ele>
        <time>2022-04-04T10:49:04.886Z</time>
      </trkpt>
      <trkpt lat="42.60774" lon="23.05222">
        <ele>748.591825</ele>
        <time>2022-04-04T10:49:59.932Z</time>
      </trkpt>
      <trkpt lat="42.60716" lon="23.05016">
        <ele>749.209325</ele>
        <time>2022-04-04T10:51:01.909Z</time>
      </trkpt>
      <trkpt lat="42.6069" lon="23.04796">
        <ele>742.209404</ele>
        <time>2022-04-04T10:52:07.918Z</time>
      </trkpt>
      <trkpt lat="42.60627" lon="23.04506">
        <ele>745.215127</ele>
        <time>2022-04-04T10:53:59.882Z</time>
      </trkpt>
      <trkpt lat="42.60696" lon="23.04217">
        <ele>745.621848</ele>
        <time>2022-04-04T10:54:45.888Z</time>
      </trkpt>
      <trkpt lat="42.60735" lon="23.03951">
        <ele>742.46374</ele>
        <time>2022-04-04T10:55:28.877Z</time>
      </trkpt>
      <trkpt lat="42.60787" lon="23.03698">
        <ele>750.827599</ele>
        <time>2022-04-04T10:56:16.893Z</time>
      </trkpt>
      <trkpt lat="42.60713" lon="23.03405">
        <ele>739.451496</ele>
        <time>2022-04-04T10:57:03.907Z</time>
      </trkpt>
      <trkpt lat="42.60594" lon="23.03148">
        <ele>735.165797</ele>
        <time>2022-04-04T10:57:52.880Z</time>
      </trkpt>
      <trkpt lat="42.60496" lon="23.03185">
        <ele>735.165797</ele>
        <time>2022-04-04T11:01:06.716Z</time>
      </trkpt>
    </trkseg>
  </trk>
</gpx>